createdAt,value
2022-11-26T00:00:13.146Z,11.15
2022-11-26T00:01:23.914Z,11.15
2022-11-26T00:02:32.231Z,11.13
2022-11-26T00:03:36.701Z,11.12
2022-11-26T00:04:40.125Z,11.10
2022-11-26T00:05:42.910Z,11.08
2022-11-26T00:06:44.890Z,11.08
2022-11-26T00:07:51.289Z,11.06
2022-11-26T00:08:59.140Z,10.99
2022-11-26T00:10:00.634Z,10.98
2022-11-26T00:11:10.633Z,10.97
2022-11-26T00:12:37.770Z,10.97
2022-11-26T00:13:39.219Z,10.95
2022-11-26T00:14:40.692Z,10.94
2022-11-26T00:15:42.139Z,10.93
2022-11-26T00:16:43.803Z,10.93
2022-11-26T00:17:45.442Z,10.92
2022-11-26T00:18:47.130Z,10.91
2022-11-26T00:19:48.691Z,10.90
2022-11-26T00:20:51.223Z,10.90
2022-11-26T00:21:58.478Z,10.91
2022-11-26T00:23:02.461Z,10.91
2022-11-26T00:24:04.072Z,10.91
2022-11-26T00:25:05.746Z,10.91
2022-11-26T00:26:07.242Z,10.92
2022-11-26T00:27:10.737Z,10.91
2022-11-26T00:28:23.297Z,10.91
2022-11-26T00:29:24.853Z,10.90
2022-11-26T00:30:27.277Z,10.92
2022-11-26T00:31:28.959Z,10.90
2022-11-26T00:32:34.458Z,10.90
2022-11-26T00:33:38.689Z,10.91
2022-11-26T00:34:40.320Z,10.90
2022-11-26T00:35:41.951Z,10.89
2022-11-26T00:36:43.584Z,10.89
2022-11-26T00:37:52.044Z,10.88
2022-11-26T00:38:56.895Z,10.89
2022-11-26T00:39:58.413Z,10.86
2022-11-26T00:41:00.044Z,10.84
2022-11-26T00:42:01.500Z,10.83
2022-11-26T00:43:03.047Z,10.83
2022-11-26T00:44:19.593Z,10.82
2022-11-26T00:45:24.072Z,10.81
2022-11-26T00:46:25.745Z,10.80
2022-11-26T00:48:45.474Z,10.79
2022-11-26T00:49:46.946Z,10.78
2022-11-26T00:50:54.314Z,10.77
2022-11-26T00:51:55.788Z,10.75
2022-11-26T00:53:01.050Z,10.73
2022-11-26T00:54:05.386Z,10.71
2022-11-26T00:55:09.599Z,10.71
2022-11-26T00:56:15.123Z,10.70
2022-11-26T00:57:16.574Z,10.68
2022-11-26T00:58:26.262Z,10.68
2022-11-26T00:59:27.705Z,10.67
2022-11-26T01:00:30.106Z,10.66
2022-11-26T01:01:34.502Z,10.65
2022-11-26T01:02:36.053Z,10.65
2022-11-26T01:03:37.606Z,10.66
2022-11-26T01:04:41.854Z,10.66
2022-11-26T01:05:54.245Z,10.67
2022-11-26T01:06:58.111Z,10.69
2022-11-26T01:08:00.451Z,10.68
2022-11-26T01:09:09.154Z,10.69
2022-11-26T01:10:18.013Z,10.69
2022-11-26T01:11:20.707Z,10.70
2022-11-26T01:12:22.184Z,10.70
2022-11-26T01:13:26.071Z,10.70
2022-11-26T01:14:27.609Z,10.70
2022-11-26T01:15:29.059Z,10.69
2022-11-26T01:16:31.291Z,10.70
2022-11-26T01:17:35.250Z,10.69
2022-11-26T01:18:39.826Z,10.69
2022-11-26T01:20:06.998Z,10.68
2022-11-26T01:21:10.474Z,10.67
2022-11-26T01:22:15.226Z,10.66
2022-11-26T01:23:17.615Z,10.66
2022-11-26T01:24:19.086Z,10.66
2022-11-26T01:25:23.115Z,10.66
2022-11-26T01:26:25.439Z,10.65
2022-11-26T01:27:26.990Z,10.62
2022-11-26T01:28:28.481Z,10.63
2022-11-26T01:29:30.038Z,10.62
2022-11-26T01:30:32.011Z,10.60
2022-11-26T01:31:33.521Z,10.62
2022-11-26T01:32:37.980Z,10.61
2022-11-26T01:33:41.579Z,10.63
2022-11-26T01:34:43.029Z,10.61
2022-11-26T01:35:44.551Z,10.62
2022-11-26T01:36:46.065Z,10.61
2022-11-26T01:37:50.040Z,10.61
2022-11-26T01:38:52.512Z,10.61
2022-11-26T01:39:53.994Z,10.61
2022-11-26T01:41:28.121Z,10.62
2022-11-26T01:42:36.459Z,10.60
2022-11-26T01:43:41.005Z,10.61
2022-11-26T01:44:44.381Z,10.61
2022-11-26T01:45:45.910Z,10.61
2022-11-26T01:46:47.591Z,10.61
2022-11-26T01:47:51.501Z,10.60
2022-11-26T01:48:53.234Z,10.60
2022-11-26T01:50:16.417Z,10.60
2022-11-26T01:51:25.621Z,10.57
2022-11-26T01:52:27.094Z,10.58
2022-11-26T01:53:29.984Z,10.58
2022-11-26T01:54:41.825Z,10.56
2022-11-26T01:55:50.059Z,10.54
2022-11-26T01:56:51.761Z,10.52
2022-11-26T01:58:02.746Z,10.52
2022-11-26T01:59:08.262Z,10.49
2022-11-26T02:00:09.895Z,10.46
2022-11-26T02:01:16.076Z,10.47
2022-11-26T02:02:17.669Z,10.45
2022-11-26T02:03:19.180Z,10.46
2022-11-26T02:04:27.249Z,10.45
2022-11-26T02:05:29.543Z,10.46
2022-11-26T02:06:34.318Z,10.48
2022-11-26T02:07:35.850Z,10.48
2022-11-26T02:08:37.375Z,10.47
2022-11-26T02:09:38.835Z,10.47
2022-11-26T02:10:40.290Z,10.47
2022-11-26T02:11:41.788Z,10.47
2022-11-26T02:12:43.225Z,10.48
2022-11-26T02:13:45.538Z,10.47
2022-11-26T02:14:54.220Z,10.47
2022-11-26T02:15:59.815Z,10.47
2022-11-26T02:17:09.747Z,10.47
2022-11-26T02:18:11.222Z,10.47
2022-11-26T02:19:31.139Z,10.48
2022-11-26T02:20:53.831Z,10.48
2022-11-26T02:22:04.577Z,10.47
2022-11-26T02:23:20.645Z,10.47
2022-11-26T02:24:35.768Z,10.46
2022-11-26T02:25:40.526Z,10.45
2022-11-26T02:26:54.175Z,10.44
2022-11-26T02:28:28.222Z,10.40
2022-11-26T02:29:47.974Z,10.38
2022-11-26T02:30:52.559Z,10.35
2022-11-26T02:32:01.064Z,10.35
2022-11-26T02:33:06.486Z,10.34
2022-11-26T02:34:13.225Z,10.31
2022-11-26T02:35:17.282Z,10.30
2022-11-26T02:36:29.756Z,10.28
2022-11-26T02:37:32.900Z,10.29
2022-11-26T02:38:37.782Z,10.27
2022-11-26T02:39:39.233Z,10.28
2022-11-26T02:42:00.095Z,10.28
2022-11-26T02:43:01.591Z,10.27
2022-11-26T02:44:03.070Z,10.28
2022-11-26T02:45:06.515Z,10.27
2022-11-26T02:46:12.239Z,10.27
2022-11-26T02:47:17.785Z,10.24
2022-11-26T02:48:23.457Z,10.25
2022-11-26T02:49:24.944Z,10.23
2022-11-26T02:50:27.730Z,10.22
2022-11-26T02:51:35.172Z,10.23
2022-11-26T02:52:36.729Z,10.19
2022-11-26T02:53:38.195Z,10.18
2022-11-26T02:54:39.835Z,10.19
2022-11-26T02:55:42.923Z,10.18
2022-11-26T02:56:45.171Z,10.17
2022-11-26T02:57:47.499Z,10.15
2022-11-26T02:58:52.250Z,10.13
2022-11-26T02:59:54.046Z,10.11
2022-11-26T03:00:55.565Z,10.11
2022-11-26T03:01:58.759Z,10.12
2022-11-26T03:03:02.042Z,10.11
2022-11-26T03:04:07.742Z,10.11
2022-11-26T03:05:09.285Z,10.11
2022-11-26T03:06:11.250Z,10.12
2022-11-26T03:07:14.679Z,10.08
2022-11-26T03:08:16.447Z,10.07
2022-11-26T03:09:17.992Z,10.04
2022-11-26T03:10:26.006Z,10.04
2022-11-26T03:11:27.753Z,10.06
2022-11-26T03:12:29.385Z,10.07
2022-11-26T03:13:31.066Z,10.09
2022-11-26T03:14:32.514Z,10.09
2022-11-26T03:15:41.471Z,10.10
2022-11-26T03:16:43.099Z,10.10
2022-11-26T03:17:44.658Z,10.12
2022-11-26T03:18:46.103Z,10.11
2022-11-26T03:19:48.153Z,10.12
2022-11-26T03:20:52.397Z,10.12
2022-11-26T03:21:54.154Z,10.11
2022-11-26T03:22:58.671Z,10.13
2022-11-26T03:24:00.638Z,10.13
2022-11-26T03:25:02.111Z,10.13
2022-11-26T03:26:03.553Z,10.11
2022-11-26T03:27:05.041Z,10.10
2022-11-26T03:28:06.520Z,10.10
2022-11-26T03:29:07.966Z,10.11
2022-11-26T03:30:09.685Z,10.11
2022-11-26T03:31:11.218Z,10.10
2022-11-26T03:32:12.703Z,10.11
2022-11-26T03:33:14.197Z,10.09
2022-11-26T03:34:15.625Z,10.08
2022-11-26T03:35:17.118Z,10.09
2022-11-26T03:36:18.611Z,10.09
2022-11-26T03:37:20.194Z,10.10
2022-11-26T03:38:21.723Z,10.09
2022-11-26T03:39:23.195Z,10.10
2022-11-26T03:40:24.659Z,10.05
2022-11-26T03:41:26.125Z,10.04
2022-11-26T03:42:27.620Z,10.03
2022-11-26T03:43:29.066Z,10.02
2022-11-26T03:44:33.736Z,10.02
2022-11-26T03:45:39.279Z,10.02
2022-11-26T03:46:40.781Z,10.03
2022-11-26T03:47:42.305Z,10.02
2022-11-26T03:48:43.809Z,10.01
2022-11-26T03:49:47.310Z,9.95
2022-11-26T03:50:48.949Z,9.93
2022-11-26T03:51:50.398Z,9.95
2022-11-26T03:52:51.845Z,9.96
2022-11-26T03:53:53.352Z,9.97
2022-11-26T03:54:54.809Z,9.98
2022-11-26T03:55:56.289Z,9.98
2022-11-26T03:56:57.802Z,9.96
2022-11-26T03:57:59.255Z,9.97
2022-11-26T03:59:00.726Z,9.98
2022-11-26T04:00:02.423Z,9.97
2022-11-26T04:01:09.447Z,9.97
2022-11-26T04:02:10.922Z,9.95
2022-11-26T04:03:12.621Z,9.94
2022-11-26T04:04:16.286Z,9.95
2022-11-26T04:05:17.778Z,9.94
2022-11-26T04:06:21.672Z,9.94
2022-11-26T04:07:25.494Z,9.93
2022-11-26T04:08:26.988Z,9.91
2022-11-26T04:09:28.463Z,9.87
2022-11-26T04:10:29.953Z,9.85
2022-11-26T04:11:31.460Z,9.80
2022-11-26T04:12:33.014Z,9.80
2022-11-26T04:13:34.516Z,9.78
2022-11-26T04:14:36.269Z,9.77
2022-11-26T04:15:38.004Z,9.76
2022-11-26T04:16:39.525Z,9.76
2022-11-26T04:17:43.188Z,9.74
2022-11-26T04:18:44.707Z,9.74
2022-11-26T04:19:46.243Z,9.73
2022-11-26T04:20:52.952Z,9.74
2022-11-26T04:21:54.910Z,9.76
2022-11-26T04:22:56.382Z,9.74
2022-11-26T04:23:57.843Z,9.70
2022-11-26T04:24:59.313Z,9.69
2022-11-26T04:26:00.881Z,9.67
2022-11-26T04:27:02.632Z,9.65
2022-11-26T04:28:04.233Z,9.65
2022-11-26T04:29:05.667Z,9.62
2022-11-26T04:30:07.825Z,9.57
2022-11-26T04:31:09.351Z,9.50
2022-11-26T04:32:13.406Z,9.44
2022-11-26T04:33:15.066Z,9.45
2022-11-26T04:34:16.493Z,9.47
2022-11-26T04:35:17.986Z,9.50
2022-11-26T04:36:25.647Z,9.52
2022-11-26T04:37:27.086Z,9.54
2022-11-26T04:38:28.534Z,9.56
2022-11-26T04:39:30.015Z,9.57
2022-11-26T04:40:31.581Z,9.59
2022-11-26T04:41:33.050Z,9.59
2022-11-26T04:42:34.639Z,9.59
2022-11-26T04:43:36.084Z,9.60
2022-11-26T04:44:37.786Z,9.60
2022-11-26T04:45:39.420Z,9.59
2022-11-26T04:46:40.942Z,9.57
2022-11-26T04:47:43.266Z,9.57
2022-11-26T04:48:44.867Z,9.58
2022-11-26T04:49:46.300Z,9.43
2022-11-26T04:50:48.587Z,9.54
2022-11-26T04:51:50.084Z,9.55
2022-11-26T04:52:51.626Z,9.54
2022-11-26T04:53:55.780Z,9.55
2022-11-26T04:54:58.158Z,9.56
2022-11-26T04:55:59.672Z,9.54
2022-11-26T04:57:01.193Z,9.54
2022-11-26T04:58:02.684Z,9.46
2022-11-26T04:59:04.210Z,9.43
2022-11-26T05:00:06.406Z,9.41
2022-11-26T05:01:07.974Z,9.41
2022-11-26T05:02:09.522Z,9.42
2022-11-26T05:03:11.112Z,9.43
2022-11-26T05:04:12.616Z,9.44
2022-11-26T05:05:14.112Z,9.45
2022-11-26T05:06:16.142Z,9.44
2022-11-26T05:07:17.756Z,9.46
2022-11-26T05:08:19.279Z,9.46
2022-11-26T05:09:20.802Z,9.44
2022-11-26T05:10:22.350Z,9.46
2022-11-26T05:11:23.791Z,9.45
2022-11-26T05:12:25.294Z,9.45
2022-11-26T05:13:26.755Z,9.46
2022-11-26T05:14:28.237Z,9.46
2022-11-26T05:15:32.680Z,9.48
2022-11-26T05:16:34.258Z,9.48
2022-11-26T05:17:35.753Z,9.48
2022-11-26T05:18:37.177Z,9.48
2022-11-26T05:19:38.650Z,9.49
2022-11-26T05:20:40.125Z,9.49
2022-11-26T05:21:41.635Z,9.48
2022-11-26T05:22:43.106Z,9.48
2022-11-26T05:23:50.738Z,9.43
2022-11-26T05:24:52.222Z,9.38
2022-11-26T05:25:53.891Z,9.35
2022-11-26T05:26:57.347Z,9.35
2022-11-26T05:27:58.962Z,9.36
2022-11-26T05:29:00.570Z,9.35
2022-11-26T05:30:02.302Z,9.33
2022-11-26T05:31:04.095Z,9.33
2022-11-26T05:32:05.656Z,9.31
2022-11-26T05:33:07.121Z,9.29
2022-11-26T05:34:08.630Z,9.28
2022-11-26T05:35:10.094Z,9.25
2022-11-26T05:36:11.600Z,9.23
2022-11-26T05:37:13.090Z,9.21
2022-11-26T05:38:14.551Z,9.23
2022-11-26T05:39:16.557Z,9.22
2022-11-26T05:40:18.136Z,9.17
2022-11-26T05:41:19.591Z,9.16
2022-11-26T05:42:21.088Z,9.17
2022-11-26T05:43:22.991Z,9.18
2022-11-26T05:44:24.458Z,9.19
2022-11-26T05:45:25.981Z,9.20
2022-11-26T05:46:27.434Z,9.19
2022-11-26T05:47:28.920Z,9.21
2022-11-26T05:48:30.413Z,9.21
2022-11-26T05:49:31.882Z,9.22
2022-11-26T05:50:33.377Z,9.23
2022-11-26T05:51:34.918Z,9.23
2022-11-26T05:52:36.449Z,9.23
2022-11-26T05:53:37.905Z,9.24
2022-11-26T05:54:39.680Z,9.23
2022-11-26T05:55:41.406Z,9.25
2022-11-26T05:56:42.889Z,9.23
2022-11-26T05:57:44.329Z,9.23
2022-11-26T05:58:45.864Z,9.22
2022-11-26T05:59:48.989Z,9.20
2022-11-26T06:00:50.444Z,9.20
2022-11-26T06:01:52.012Z,9.17
2022-11-26T06:02:53.624Z,9.17
2022-11-26T06:03:55.254Z,9.13
2022-11-26T06:04:56.755Z,9.12
2022-11-26T06:05:58.210Z,9.08
2022-11-26T06:06:59.714Z,9.08
2022-11-26T06:08:01.210Z,9.06
2022-11-26T06:09:02.763Z,9.04
2022-11-26T06:10:04.654Z,9.03
2022-11-26T06:11:06.126Z,9.02
2022-11-26T06:12:07.800Z,9.02
2022-11-26T06:13:09.298Z,9.00
2022-11-26T06:14:10.828Z,8.98
2022-11-26T06:15:12.322Z,8.95
2022-11-26T06:16:13.813Z,8.88
2022-11-26T06:17:15.363Z,8.85
2022-11-26T06:18:17.394Z,8.79
2022-11-26T06:19:18.887Z,8.71
2022-11-26T06:20:20.345Z,8.61
2022-11-26T06:21:24.840Z,8.51
2022-11-26T06:22:28.386Z,8.46
2022-11-26T06:23:30.003Z,8.40
2022-11-26T06:24:31.433Z,8.42
2022-11-26T06:25:32.891Z,8.35
2022-11-26T06:26:34.410Z,8.32
2022-11-26T06:27:35.912Z,8.35
2022-11-26T06:28:37.521Z,8.39
2022-11-26T06:29:39.025Z,8.43
2022-11-26T06:30:40.523Z,8.43
2022-11-26T06:31:42.030Z,8.44
2022-11-26T06:32:43.618Z,8.36
2022-11-26T06:33:45.050Z,8.33
2022-11-26T06:34:51.136Z,8.32
2022-11-26T06:35:58.869Z,8.35
2022-11-26T06:37:00.331Z,8.29
2022-11-26T06:38:01.834Z,8.34
2022-11-26T06:39:03.412Z,8.36
2022-11-26T06:40:05.081Z,8.36
2022-11-26T06:41:07.126Z,8.35
2022-11-26T06:42:08.775Z,8.34
2022-11-26T06:43:10.299Z,8.34
2022-11-26T06:44:11.798Z,8.37
2022-11-26T06:45:13.283Z,8.38
2022-11-26T06:46:14.779Z,8.43
2022-11-26T06:47:16.361Z,8.46
2022-11-26T06:48:24.663Z,8.47
2022-11-26T06:49:26.103Z,8.48
2022-11-26T06:50:27.557Z,8.45
2022-11-26T06:51:29.014Z,8.50
2022-11-26T06:52:30.502Z,8.51
2022-11-26T06:53:32.189Z,8.54
2022-11-26T06:54:33.710Z,8.50
2022-11-26T06:55:38.050Z,8.50
2022-11-26T06:56:39.545Z,8.51
2022-11-26T06:57:41.065Z,8.52
2022-11-26T06:58:42.798Z,8.54
2022-11-26T06:59:44.263Z,8.58
2022-11-26T07:00:45.737Z,8.59
2022-11-26T07:01:47.276Z,8.61
2022-11-26T07:02:56.561Z,8.63
2022-11-26T07:03:58.094Z,8.65
2022-11-26T07:04:59.566Z,8.67
2022-11-26T07:06:01.023Z,8.70
2022-11-26T07:07:02.495Z,8.70
2022-11-26T07:08:04.077Z,8.70
2022-11-26T07:09:09.507Z,8.69
2022-11-26T07:10:11.023Z,8.71
2022-11-26T07:11:12.575Z,8.70
2022-11-26T07:12:16.482Z,8.71
2022-11-26T07:13:18.013Z,8.71
2022-11-26T07:14:19.518Z,8.73
2022-11-26T07:15:20.987Z,8.72
2022-11-26T07:16:22.657Z,8.71
2022-11-26T07:17:24.315Z,8.71
2022-11-26T07:18:26.007Z,8.72
2022-11-26T07:19:27.492Z,8.71
2022-11-26T07:20:29.028Z,8.69
2022-11-26T07:21:33.199Z,8.69
2022-11-26T07:22:35.425Z,8.66
2022-11-26T07:23:38.297Z,8.64
2022-11-26T07:24:40.131Z,8.63
2022-11-26T07:25:41.752Z,8.64
2022-11-26T07:26:43.237Z,8.64
2022-11-26T07:27:45.487Z,8.63
2022-11-26T07:28:49.887Z,8.66
2022-11-26T07:29:51.908Z,8.65
2022-11-26T07:30:53.457Z,8.64
2022-11-26T07:31:59.907Z,8.63
2022-11-26T07:33:01.916Z,8.64
2022-11-26T07:34:03.952Z,8.63
2022-11-26T07:35:08.528Z,8.60
2022-11-26T07:36:23.932Z,8.59
2022-11-26T07:37:25.565Z,8.63
2022-11-26T07:38:27.663Z,8.68
2022-11-26T07:39:29.894Z,8.76
2022-11-26T07:40:34.380Z,8.85
2022-11-26T07:41:35.827Z,8.94
2022-11-26T07:42:40.090Z,9.03
2022-11-26T07:43:42.260Z,9.08
2022-11-26T07:44:43.743Z,9.13
2022-11-26T07:45:45.236Z,9.17
2022-11-26T07:46:46.750Z,9.18
2022-11-26T07:47:48.185Z,9.20
2022-11-26T07:48:49.782Z,9.19
2022-11-26T07:49:51.286Z,9.22
2022-11-26T07:50:52.738Z,9.23
2022-11-26T07:51:54.293Z,9.26
2022-11-26T07:52:55.952Z,9.27
2022-11-26T07:53:58.144Z,9.29
2022-11-26T07:54:59.592Z,9.31
2022-11-26T07:56:03.833Z,9.32
2022-11-26T07:57:05.276Z,9.32
2022-11-26T07:58:06.773Z,9.31
2022-11-26T07:59:08.306Z,9.29
2022-11-26T08:00:09.950Z,9.31
2022-11-26T08:01:21.443Z,9.30
2022-11-26T08:02:23.028Z,9.32
2022-11-26T08:03:25.544Z,9.30
2022-11-26T08:04:27.064Z,9.29
2022-11-26T08:05:30.328Z,9.32
2022-11-26T08:06:31.894Z,9.32
2022-11-26T08:07:34.815Z,9.35
2022-11-26T08:08:36.781Z,9.38
2022-11-26T08:09:38.271Z,9.39
2022-11-26T08:10:40.063Z,9.40
2022-11-26T08:11:41.510Z,9.43
2022-11-26T08:12:42.973Z,9.47
2022-11-26T08:13:44.695Z,9.46
2022-11-26T08:14:48.501Z,9.46
2022-11-26T08:15:49.998Z,9.42
2022-11-26T08:16:52.401Z,9.48
2022-11-26T08:17:54.835Z,9.50
2022-11-26T08:18:56.687Z,9.55
2022-11-26T08:19:58.228Z,9.60
2022-11-26T08:21:00.921Z,9.63
2022-11-26T08:22:02.406Z,9.67
2022-11-26T08:23:04.225Z,9.73
2022-11-26T08:24:12.666Z,9.77
2022-11-26T08:25:14.409Z,9.84
2022-11-26T08:26:27.455Z,9.81
2022-11-26T08:27:33.050Z,9.83
2022-11-26T08:28:37.082Z,9.83
2022-11-26T08:29:38.583Z,9.85
2022-11-26T08:30:40.042Z,9.88
2022-11-26T08:31:45.704Z,9.91
2022-11-26T08:32:50.891Z,9.96
2022-11-26T08:33:52.766Z,10.01
2022-11-26T08:34:54.414Z,10.05
2022-11-26T08:36:06.599Z,10.06
2022-11-26T08:37:11.929Z,10.06
2022-11-26T08:38:13.503Z,10.06
2022-11-26T08:39:15.631Z,10.10
2022-11-26T08:40:17.279Z,10.15
2022-11-26T08:41:18.779Z,10.19
2022-11-26T08:42:20.499Z,10.22
2022-11-26T08:43:30.806Z,10.24
2022-11-26T08:44:42.505Z,10.23
2022-11-26T08:45:44.367Z,10.26
2022-11-26T08:46:45.864Z,10.28
2022-11-26T08:47:50.078Z,10.35
2022-11-26T08:48:54.749Z,10.30
2022-11-26T08:49:56.507Z,10.44
2022-11-26T08:51:01.914Z,10.44
2022-11-26T08:52:03.518Z,10.44
2022-11-26T08:53:04.951Z,10.43
2022-11-26T08:54:10.906Z,10.47
2022-11-26T08:55:15.126Z,10.52
2022-11-26T08:56:19.593Z,10.55
2022-11-26T08:57:21.566Z,10.59
2022-11-26T08:58:23.277Z,10.65
2022-11-26T08:59:27.686Z,10.71
2022-11-26T09:00:29.464Z,10.78
2022-11-26T09:01:32.540Z,10.80
2022-11-26T09:02:36.980Z,10.86
2022-11-26T09:03:38.459Z,10.87
2022-11-26T09:04:40.274Z,10.91
2022-11-26T09:05:54.562Z,10.94
2022-11-26T09:06:56.055Z,11.00
2022-11-26T09:08:00.750Z,11.05
2022-11-26T09:09:15.047Z,11.11
2022-11-26T09:10:17.008Z,11.14
2022-11-26T09:11:18.523Z,11.20
2022-11-26T09:12:20.034Z,11.20
2022-11-26T09:13:21.726Z,11.20
2022-11-26T09:14:31.356Z,11.23
2022-11-26T09:15:35.232Z,11.30
2022-11-26T09:16:36.832Z,11.36
2022-11-26T09:17:38.391Z,11.43
2022-11-26T09:18:39.913Z,11.49
2022-11-26T09:19:41.493Z,11.54
2022-11-26T09:20:43.035Z,11.57
2022-11-26T09:21:44.881Z,11.60
2022-11-26T09:22:46.388Z,11.59
2022-11-26T09:23:48.170Z,11.63
2022-11-26T09:24:49.694Z,11.77
2022-11-26T09:25:51.231Z,11.92
2022-11-26T09:26:53.354Z,12.08
2022-11-26T09:27:57.274Z,12.19
2022-11-26T09:28:58.833Z,12.36
2022-11-26T09:30:00.342Z,12.48
2022-11-26T09:31:02.070Z,12.56
2022-11-26T09:33:25.711Z,12.89
2022-11-26T09:34:27.853Z,13.01
2022-11-26T09:35:29.412Z,13.11
2022-11-26T09:36:30.954Z,13.23
2022-11-26T09:37:34.722Z,13.42
2022-11-26T09:38:39.483Z,13.60
2022-11-26T09:39:49.903Z,13.70
2022-11-26T09:40:57.471Z,13.81
2022-11-26T09:42:09.088Z,13.98
2022-11-26T09:43:17.345Z,14.13
2022-11-26T09:44:37.389Z,14.18
2022-11-26T09:45:43.365Z,14.30
2022-11-26T09:47:10.395Z,14.45
2022-11-26T09:48:12.697Z,14.60
2022-11-26T09:49:14.767Z,14.70
2022-11-26T09:50:16.209Z,14.81
2022-11-26T09:51:20.391Z,14.82
2022-11-26T09:52:24.030Z,14.76
2022-11-26T09:53:26.299Z,14.79
2022-11-26T09:54:29.607Z,14.85
2022-11-26T09:55:34.926Z,14.85
2022-11-26T09:56:36.465Z,14.90
2022-11-26T09:57:46.032Z,14.90
2022-11-26T09:59:01.786Z,14.91
2022-11-26T10:00:04.885Z,14.91
2022-11-26T10:01:06.751Z,14.87
2022-11-26T10:02:12.685Z,14.81
2022-11-26T10:03:15.189Z,14.79
2022-11-26T10:04:27.408Z,14.83
2022-11-26T10:05:37.732Z,14.84
2022-11-26T10:06:51.246Z,14.91
2022-11-26T10:08:08.086Z,14.90
2022-11-26T10:09:09.699Z,14.99
2022-11-26T10:10:14.230Z,15.05
2022-11-26T10:11:22.021Z,15.13
2022-11-26T10:12:32.229Z,15.21
2022-11-26T10:13:53.184Z,15.38
2022-11-26T10:15:00.428Z,15.50
2022-11-26T10:16:05.861Z,15.59
2022-11-26T10:17:16.326Z,15.63
2022-11-26T10:18:30.050Z,15.74
2022-11-26T10:19:39.095Z,15.84
2022-11-26T10:20:59.391Z,15.89
2022-11-26T10:22:01.398Z,15.88
2022-11-26T10:23:04.176Z,15.79
2022-11-26T10:24:23.868Z,15.75
2022-11-26T10:25:29.165Z,15.79
2022-11-26T10:26:34.312Z,15.79
2022-11-26T10:27:36.513Z,15.73
2022-11-26T10:28:53.253Z,15.68
2022-11-26T10:29:55.945Z,15.55
2022-11-26T10:30:59.364Z,15.48
2022-11-26T10:32:02.089Z,15.39
2022-11-26T10:33:03.615Z,15.36
2022-11-26T10:34:08.507Z,15.31
2022-11-26T10:35:13.871Z,15.24
2022-11-26T10:36:20.784Z,15.21
2022-11-26T10:37:23.365Z,15.22
2022-11-26T10:38:24.893Z,15.21
2022-11-26T10:39:27.494Z,15.20
2022-11-26T10:40:29.554Z,15.07
2022-11-26T10:41:33.217Z,15.11
2022-11-26T10:42:42.056Z,15.13
2022-11-26T10:43:43.659Z,15.13
2022-11-26T10:44:45.171Z,15.13
2022-11-26T10:45:56.623Z,15.09
2022-11-26T10:46:58.632Z,15.07
2022-11-26T10:48:36.406Z,15.01
2022-11-26T10:49:40.780Z,14.97
2022-11-26T10:50:47.842Z,14.95
2022-11-26T10:51:50.137Z,14.93
2022-11-26T10:52:52.165Z,14.92
2022-11-26T10:54:00.364Z,14.90
2022-11-26T10:55:10.760Z,14.87
2022-11-26T10:56:13.359Z,14.88
2022-11-26T10:57:16.012Z,14.87
2022-11-26T10:58:19.464Z,14.85
2022-11-26T10:59:28.866Z,14.86
2022-11-26T11:00:41.078Z,14.92
2022-11-26T11:01:43.459Z,14.90
2022-11-26T11:02:47.529Z,14.93
2022-11-26T11:04:07.752Z,14.95
2022-11-26T11:05:09.976Z,15.04
2022-11-26T11:06:12.888Z,15.06
2022-11-26T11:07:33.535Z,15.11
2022-11-26T11:08:35.223Z,15.14
2022-11-26T11:09:43.095Z,15.16
2022-11-26T11:10:57.323Z,15.15
2022-11-26T11:12:18.137Z,15.10
2022-11-26T11:13:19.863Z,15.07
2022-11-26T11:14:27.968Z,15.09
2022-11-26T11:15:31.242Z,15.15
2022-11-26T11:16:39.651Z,15.15
2022-11-26T11:17:41.372Z,15.17
2022-11-26T11:18:56.078Z,15.15
2022-11-26T11:19:59.077Z,15.04
2022-11-26T11:21:03.591Z,15.02
2022-11-26T11:22:05.576Z,15.00
2022-11-26T11:23:10.487Z,14.99
2022-11-26T11:24:27.137Z,14.92
2022-11-26T11:25:34.356Z,14.92
2022-11-26T11:26:43.503Z,14.89
2022-11-26T11:27:45.136Z,14.84
2022-11-26T11:28:47.767Z,14.84
2022-11-26T11:29:49.393Z,14.82
2022-11-26T11:30:58.676Z,14.82
2022-11-26T11:32:04.559Z,14.83
2022-11-26T11:33:10.136Z,14.78
2022-11-26T11:34:12.919Z,14.77
2022-11-26T11:35:20.328Z,14.73
2022-11-26T11:36:28.968Z,14.66
2022-11-26T11:37:30.469Z,14.65
2022-11-26T11:38:33.126Z,14.62
2022-11-26T11:39:35.272Z,14.60
2022-11-26T11:40:41.083Z,14.54
2022-11-26T11:41:44.502Z,14.50
2022-11-26T11:42:56.474Z,14.52
2022-11-26T11:44:06.115Z,14.53
2022-11-26T11:45:17.362Z,14.49
2022-11-26T11:46:37.458Z,14.48
2022-11-26T11:47:45.135Z,14.46
2022-11-26T11:48:47.102Z,14.47
2022-11-26T11:49:50.742Z,14.46
2022-11-26T11:50:55.028Z,14.42
2022-11-26T11:52:03.618Z,14.41
2022-11-26T11:53:13.725Z,14.41
2022-11-26T11:54:27.410Z,14.41
2022-11-26T11:55:32.986Z,14.42
2022-11-26T11:56:39.043Z,14.40
2022-11-26T11:57:58.373Z,14.39
2022-11-26T11:59:06.857Z,14.38
2022-11-26T12:00:13.485Z,14.37
2022-11-26T12:01:30.718Z,14.35
2022-11-26T12:02:50.681Z,14.32
2022-11-26T12:03:52.182Z,14.30
2022-11-26T12:04:57.064Z,14.32
2022-11-26T12:06:04.736Z,14.27
2022-11-26T12:07:28.197Z,14.29
2022-11-26T12:08:49.222Z,14.29
2022-11-26T12:10:09.705Z,14.25
2022-11-26T12:11:35.054Z,14.19
2022-11-26T12:12:59.803Z,14.12
2022-11-26T12:14:03.106Z,14.10
2022-11-26T12:15:10.522Z,14.11
2022-11-26T12:16:12.411Z,14.10
2022-11-26T12:17:14.035Z,14.07
2022-11-26T12:18:21.783Z,14.03
2022-11-26T12:19:39.645Z,14.06
2022-11-26T12:20:44.157Z,14.06
2022-11-26T12:21:51.465Z,14.07
2022-11-26T12:22:58.255Z,14.06
2022-11-26T12:24:23.039Z,13.96
2022-11-26T12:25:37.425Z,13.95
2022-11-26T12:26:58.847Z,13.96
2022-11-26T12:28:07.281Z,13.93
2022-11-26T12:29:12.287Z,13.89
2022-11-26T12:30:20.925Z,13.89
2022-11-26T12:31:37.865Z,13.88
2022-11-26T12:32:49.874Z,13.89
2022-11-26T12:33:55.990Z,13.89
2022-11-26T12:34:58.339Z,13.90
2022-11-26T12:36:07.800Z,13.90
2022-11-26T12:37:13.047Z,13.90
2022-11-26T12:38:19.079Z,13.86
2022-11-26T12:39:45.316Z,13.86
2022-11-26T12:40:51.289Z,13.88
2022-11-26T12:41:56.780Z,13.88
2022-11-26T12:43:02.714Z,13.89
2022-11-26T12:44:12.829Z,13.87
2022-11-26T12:45:24.549Z,13.85
2022-11-26T12:46:26.006Z,13.84
2022-11-26T12:47:37.071Z,13.84
2022-11-26T12:48:39.582Z,13.86
2022-11-26T12:49:54.875Z,13.84
2022-11-26T12:51:01.691Z,13.81
2022-11-26T12:52:07.052Z,13.82
2022-11-26T12:53:13.975Z,13.80
2022-11-26T12:54:15.735Z,13.79
2022-11-26T12:55:22.096Z,13.77
2022-11-26T12:56:30.975Z,13.74
2022-11-26T12:57:39.671Z,13.74
2022-11-26T12:58:44.714Z,13.75
2022-11-26T13:00:06.849Z,13.74
2022-11-26T13:01:11.564Z,13.76
2022-11-26T13:02:19.038Z,13.74
2022-11-26T13:03:32.186Z,13.73
2022-11-26T13:04:40.034Z,13.75
2022-11-26T13:06:00.598Z,13.74
2022-11-26T13:07:13.850Z,13.71
2022-11-26T13:08:21.299Z,13.72
2022-11-26T13:09:25.553Z,13.72
2022-11-26T13:10:29.383Z,13.70
2022-11-26T13:11:31.408Z,13.69
2022-11-26T13:12:39.105Z,13.69
2022-11-26T13:13:46.348Z,13.71
2022-11-26T13:15:03.803Z,13.65
2022-11-26T13:16:19.660Z,13.64
2022-11-26T13:17:23.423Z,13.60
2022-11-26T13:18:31.883Z,13.61
2022-11-26T13:19:38.347Z,13.62
2022-11-26T13:20:40.114Z,13.60
2022-11-26T13:21:47.667Z,13.58
2022-11-26T13:23:08.301Z,13.55
2022-11-26T13:24:13.519Z,13.54
2022-11-26T13:25:36.371Z,13.53
2022-11-26T13:26:43.926Z,13.54
2022-11-26T13:27:54.431Z,13.50
2022-11-26T13:29:20.029Z,13.49
2022-11-26T13:30:24.674Z,13.48
2022-11-26T13:31:52.788Z,13.50
2022-11-26T13:33:00.285Z,13.50
2022-11-26T13:34:06.706Z,13.52
2022-11-26T13:35:26.416Z,13.51
2022-11-26T13:36:33.838Z,13.49
2022-11-26T13:37:38.068Z,13.47
2022-11-26T13:38:58.257Z,13.47
2022-11-26T13:40:05.968Z,13.44
2022-11-26T13:41:07.510Z,13.43
2022-11-26T13:42:12.252Z,13.41
2022-11-26T13:43:25.933Z,13.37
2022-11-26T13:44:30.503Z,13.36
2022-11-26T13:45:47.348Z,13.36
2022-11-26T13:46:54.953Z,13.37
2022-11-26T13:47:59.552Z,13.33
2022-11-26T13:49:03.838Z,13.33
2022-11-26T13:50:05.268Z,13.31
2022-11-26T13:51:18.944Z,13.33
2022-11-26T13:52:30.780Z,13.31
2022-11-26T13:53:52.660Z,13.29
2022-11-26T13:55:02.496Z,13.27
2022-11-26T13:56:04.734Z,13.24
2022-11-26T13:57:17.099Z,13.25
2022-11-26T13:58:29.502Z,13.22
2022-11-26T13:59:31.671Z,13.21
2022-11-26T14:00:39.437Z,13.23
2022-11-26T14:01:41.328Z,13.21
2022-11-26T14:02:44.580Z,13.18
2022-11-26T14:03:49.496Z,13.16
2022-11-26T14:04:51.531Z,13.16
2022-11-26T14:05:53.045Z,13.15
2022-11-26T14:07:06.335Z,13.14
2022-11-26T14:08:26.852Z,13.13